sensor_id;sensor_type;location;lat;lon;timestamp;temperature;humidity
41756;DHT22;27435;48.480;9.258;2022-08-04T00:00:22;23.00;67.90
41756;DHT22;27435;48.480;9.258;2022-08-04T00:05:59;22.90;67.90
41756;DHT22;27435;48.480;9.258;2022-08-04T00:11:04;22.90;67.60
41756;DHT22;27435;48.480;9.258;2022-08-04T00:13:37;22.80;68.00
41756;DHT22;27435;48.480;9.258;2022-08-04T00:16:08;22.90;66.90
41756;DHT22;27435;48.480;9.258;2022-08-04T00:18:56;23.00;66.20
41756;DHT22;27435;48.480;9.258;2022-08-04T00:21:24;23.10;65.90
41756;DHT22;27435;48.480;9.258;2022-08-04T00:23:51;23.10;66.20
41756;DHT22;27435;48.480;9.258;2022-08-04T00:26:18;23.00;66.20
41756;DHT22;27435;48.480;9.258;2022-08-04T00:28:46;23.10;66.10
41756;DHT22;27435;48.480;9.258;2022-08-04T00:31:14;23.10;66.30
41756;DHT22;27435;48.480;9.258;2022-08-04T00:33:44;23.00;66.40
41756;DHT22;27435;48.480;9.258;2022-08-04T00:36:10;23.10;66.20
41756;DHT22;27435;48.480;9.258;2022-08-04T00:38:43;23.10;65.90
41756;DHT22;27435;48.480;9.258;2022-08-04T00:44:41;23.10;65.70
41756;DHT22;27435;48.480;9.258;2022-08-04T00:50:17;23.20;65.30
41756;DHT22;27435;48.480;9.258;2022-08-04T00:58:23;23.20;65.00
41756;DHT22;27435;48.480;9.258;2022-08-04T01:00:59;23.20;65.40
41756;DHT22;27435;48.480;9.258;2022-08-04T01:04:05;22.80;67.60
41756;DHT22;27435;48.480;9.258;2022-08-04T01:14:43;22.50;68.30
41756;DHT22;27435;48.480;9.258;2022-08-04T01:17:51;22.40;68.90
41756;DHT22;27435;48.480;9.258;2022-08-04T01:20:19;22.40;69.30
41756;DHT22;27435;48.480;9.258;2022-08-04T01:28:40;21.80;71.80
41756;DHT22;27435;48.480;9.258;2022-08-04T01:31:27;21.60;71.90
41756;DHT22;27435;48.480;9.258;2022-08-04T01:33:58;21.60;72.10
41756;DHT22;27435;48.480;9.258;2022-08-04T01:36:24;21.60;71.40
41756;DHT22;27435;48.480;9.258;2022-08-04T01:38:53;21.60;70.60
41756;DHT22;27435;48.480;9.258;2022-08-04T01:41:19;21.60;70.20
41756;DHT22;27435;48.480;9.258;2022-08-04T01:43:45;21.80;68.30
41756;DHT22;27435;48.480;9.258;2022-08-04T01:46:13;22.10;67.40
41756;DHT22;27435;48.480;9.258;2022-08-04T01:48:41;22.40;65.60
41756;DHT22;27435;48.480;9.258;2022-08-04T01:51:09;22.60;65.00
41756;DHT22;27435;48.480;9.258;2022-08-04T01:53:37;22.70;64.30
41756;DHT22;27435;48.480;9.258;2022-08-04T01:56:05;22.80;64.10
41756;DHT22;27435;48.480;9.258;2022-08-04T01:58:32;22.90;64.30
41756;DHT22;27435;48.480;9.258;2022-08-04T02:01:06;23.00;64.10
41756;DHT22;27435;48.480;9.258;2022-08-04T02:03:33;23.00;63.80
41756;DHT22;27435;48.480;9.258;2022-08-04T02:06:27;23.00;63.80
41756;DHT22;27435;48.480;9.258;2022-08-04T02:11:40;23.10;63.30
41756;DHT22;27435;48.480;9.258;2022-08-04T02:14:24;23.10;63.40
41756;DHT22;27435;48.480;9.258;2022-08-04T02:17:21;23.10;63.10
41756;DHT22;27435;48.480;9.258;2022-08-04T02:20:03;23.10;63.20
41756;DHT22;27435;48.480;9.258;2022-08-04T02:22:33;23.10;63.50
41756;DHT22;27435;48.480;9.258;2022-08-04T02:25:07;22.90;63.90
41756;DHT22;27435;48.480;9.258;2022-08-04T02:30:11;22.80;64.10
41756;DHT22;27435;48.480;9.258;2022-08-04T02:32:37;22.80;64.20
41756;DHT22;27435;48.480;9.258;2022-08-04T02:35:34;22.80;64.40
41756;DHT22;27435;48.480;9.258;2022-08-04T02:38:36;22.80;64.30
41756;DHT22;27435;48.480;9.258;2022-08-04T02:41:03;22.60;65.10
41756;DHT22;27435;48.480;9.258;2022-08-04T02:43:30;22.60;65.70
41756;DHT22;27435;48.480;9.258;2022-08-04T02:45:58;22.40;66.30
41756;DHT22;27435;48.480;9.258;2022-08-04T02:48:26;22.30;67.20
41756;DHT22;27435;48.480;9.258;2022-08-04T02:50:53;22.10;67.20
41756;DHT22;27435;48.480;9.258;2022-08-04T02:53:21;22.00;67.70
41756;DHT22;27435;48.480;9.258;2022-08-04T02:55:47;21.80;68.20
41756;DHT22;27435;48.480;9.258;2022-08-04T02:58:16;21.80;68.50
41756;DHT22;27435;48.480;9.258;2022-08-04T03:00:44;21.80;68.70
41756;DHT22;27435;48.480;9.258;2022-08-04T03:03:33;21.60;69.70
41756;DHT22;27435;48.480;9.258;2022-08-04T03:11:48;21.30;70.90
41756;DHT22;27435;48.480;9.258;2022-08-04T03:34:43;20.40;78.00
41756;DHT22;27435;48.480;9.258;2022-08-04T03:40:24;20.20;79.00
41756;DHT22;27435;48.480;9.258;2022-08-04T03:54:57;19.70;80.70
41756;DHT22;27435;48.480;9.258;2022-08-04T04:00:19;19.60;81.10
41756;DHT22;27435;48.480;9.258;2022-08-04T04:10:42;19.60;82.10
41756;DHT22;27435;48.480;9.258;2022-08-04T04:24:38;19.40;83.00
41756;DHT22;27435;48.480;9.258;2022-08-04T04:27:17;19.50;82.90
41756;DHT22;27435;48.480;9.258;2022-08-04T04:30:05;19.50;82.90
41756;DHT22;27435;48.480;9.258;2022-08-04T04:35:45;19.40;83.80
41756;DHT22;27435;48.480;9.258;2022-08-04T04:41:07;19.60;83.20
41756;DHT22;27435;48.480;9.258;2022-08-04T04:46:43;19.70;83.40
41756;DHT22;27435;48.480;9.258;2022-08-04T04:49:28;19.60;83.50
41756;DHT22;27435;48.480;9.258;2022-08-04T04:52:23;19.50;83.50
41756;DHT22;27435;48.480;9.258;2022-08-04T04:55:25;19.50;83.30
41756;DHT22;27435;48.480;9.258;2022-08-04T04:57:55;19.60;82.50
41756;DHT22;27435;48.480;9.258;2022-08-04T05:00:25;19.60;82.80
41756;DHT22;27435;48.480;9.258;2022-08-04T05:03:08;19.70;82.20
41756;DHT22;27435;48.480;9.258;2022-08-04T05:08:25;19.70;81.90
41756;DHT22;27435;48.480;9.258;2022-08-04T05:13:57;19.60;82.70
41756;DHT22;27435;48.480;9.258;2022-08-04T05:16:33;19.60;82.50
41756;DHT22;27435;48.480;9.258;2022-08-04T05:22:09;19.80;81.80
41756;DHT22;27435;48.480;9.258;2022-08-04T05:24:44;19.90;80.80
41756;DHT22;27435;48.480;9.258;2022-08-04T05:27:13;20.10;80.50
41756;DHT22;27435;48.480;9.258;2022-08-04T05:29:55;20.20;80.40
41756;DHT22;27435;48.480;9.258;2022-08-04T05:32:30;20.20;80.40
41756;DHT22;27435;48.480;9.258;2022-08-04T05:35:19;20.30;79.60
41756;DHT22;27435;48.480;9.258;2022-08-04T05:37:47;20.40;80.20
41756;DHT22;27435;48.480;9.258;2022-08-04T05:40:18;20.60;79.10
41756;DHT22;27435;48.480;9.258;2022-08-04T05:42:47;20.70;78.90
41756;DHT22;27435;48.480;9.258;2022-08-04T05:45:14;21.00;79.10
41756;DHT22;27435;48.480;9.258;2022-08-04T05:47:40;21.30;77.70
41756;DHT22;27435;48.480;9.258;2022-08-04T05:50:08;21.40;77.00
41756;DHT22;27435;48.480;9.258;2022-08-04T05:52:38;21.60;76.20
41756;DHT22;27435;48.480;9.258;2022-08-04T05:55:05;21.80;75.60
41756;DHT22;27435;48.480;9.258;2022-08-04T05:57:35;21.90;75.40
41756;DHT22;27435;48.480;9.258;2022-08-04T06:00:04;22.10;75.10
41756;DHT22;27435;48.480;9.258;2022-08-04T06:02:32;22.30;75.50
41756;DHT22;27435;48.480;9.258;2022-08-04T06:04:59;22.60;74.50
41756;DHT22;27435;48.480;9.258;2022-08-04T06:07:36;22.60;75.00
41756;DHT22;27435;48.480;9.258;2022-08-04T06:10:01;23.00;74.10
41756;DHT22;27435;48.480;9.258;2022-08-04T06:12:52;23.80;70.80
41756;DHT22;27435;48.480;9.258;2022-08-04T06:15:20;24.70;69.60
41756;DHT22;27435;48.480;9.258;2022-08-04T06:17:53;24.70;69.50
41756;DHT22;27435;48.480;9.258;2022-08-04T06:20:21;25.60;67.50
41756;DHT22;27435;48.480;9.258;2022-08-04T06:22:53;26.50;64.80
41756;DHT22;27435;48.480;9.258;2022-08-04T06:25:23;27.20;63.10
41756;DHT22;27435;48.480;9.258;2022-08-04T06:27:50;27.30;62.90
41756;DHT22;27435;48.480;9.258;2022-08-04T06:30:16;27.30;62.80
41756;DHT22;27435;48.480;9.258;2022-08-04T06:32:44;27.90;61.70
41756;DHT22;27435;48.480;9.258;2022-08-04T06:35:22;28.60;60.00
41756;DHT22;27435;48.480;9.258;2022-08-04T06:37:51;29.00;57.70
41756;DHT22;27435;48.480;9.258;2022-08-04T06:40:18;29.50;56.80
41756;DHT22;27435;48.480;9.258;2022-08-04T06:42:44;29.30;57.50
41756;DHT22;27435;48.480;9.258;2022-08-04T06:45:12;29.80;55.80
41756;DHT22;27435;48.480;9.258;2022-08-04T06:47:40;30.10;55.60
41756;DHT22;27435;48.480;9.258;2022-08-04T06:50:10;30.40;54.30
41756;DHT22;27435;48.480;9.258;2022-08-04T06:52:37;30.70;54.50
41756;DHT22;27435;48.480;9.258;2022-08-04T06:55:04;31.00;54.00
41756;DHT22;27435;48.480;9.258;2022-08-04T06:57:31;31.30;54.10
41756;DHT22;27435;48.480;9.258;2022-08-04T07:02:33;31.80;53.30
41756;DHT22;27435;48.480;9.258;2022-08-04T07:05:05;32.10;52.30
41756;DHT22;27435;48.480;9.258;2022-08-04T07:07:31;31.70;52.90
41756;DHT22;27435;48.480;9.258;2022-08-04T07:09:57;31.00;54.00
41756;DHT22;27435;48.480;9.258;2022-08-04T07:12:23;31.00;53.90
41756;DHT22;27435;48.480;9.258;2022-08-04T07:14:50;30.40;55.40
41756;DHT22;27435;48.480;9.258;2022-08-04T07:17:18;30.30;56.30
41756;DHT22;27435;48.480;9.258;2022-08-04T07:19:46;30.00;56.10
41756;DHT22;27435;48.480;9.258;2022-08-04T07:22:12;29.70;56.70
41756;DHT22;27435;48.480;9.258;2022-08-04T07:24:40;29.80;56.90
41756;DHT22;27435;48.480;9.258;2022-08-04T07:27:06;28.90;59.60
41756;DHT22;27435;48.480;9.258;2022-08-04T07:29:35;28.30;61.00
41756;DHT22;27435;48.480;9.258;2022-08-04T07:32:02;28.10;61.50
41756;DHT22;27435;48.480;9.258;2022-08-04T07:34:28;28.20;60.90
41756;DHT22;27435;48.480;9.258;2022-08-04T07:36:57;28.10;61.50
41756;DHT22;27435;48.480;9.258;2022-08-04T07:39:29;28.60;60.80
41756;DHT22;27435;48.480;9.258;2022-08-04T07:41:59;28.80;61.90
41756;DHT22;27435;48.480;9.258;2022-08-04T07:44:25;28.60;61.10
41756;DHT22;27435;48.480;9.258;2022-08-04T07:46:51;28.70;61.90
41756;DHT22;27435;48.480;9.258;2022-08-04T07:49:17;28.80;61.40
41756;DHT22;27435;48.480;9.258;2022-08-04T07:51:44;28.80;61.70
41756;DHT22;27435;48.480;9.258;2022-08-04T07:54:11;28.60;61.30
41756;DHT22;27435;48.480;9.258;2022-08-04T07:56:40;28.60;61.70
41756;DHT22;27435;48.480;9.258;2022-08-04T07:59:06;28.60;62.50
41756;DHT22;27435;48.480;9.258;2022-08-04T08:01:34;28.70;62.50
41756;DHT22;27435;48.480;9.258;2022-08-04T08:04:01;29.00;61.40
41756;DHT22;27435;48.480;9.258;2022-08-04T08:06:28;29.20;60.70
41756;DHT22;27435;48.480;9.258;2022-08-04T08:08:55;29.40;60.40
41756;DHT22;27435;48.480;9.258;2022-08-04T08:11:20;29.40;59.40
41756;DHT22;27435;48.480;9.258;2022-08-04T08:13:49;29.50;59.60
41756;DHT22;27435;48.480;9.258;2022-08-04T08:16:19;29.50;60.40
41756;DHT22;27435;48.480;9.258;2022-08-04T08:18:48;29.40;60.10
41756;DHT22;27435;48.480;9.258;2022-08-04T08:21:14;29.40;59.90
41756;DHT22;27435;48.480;9.258;2022-08-04T08:23:40;29.30;60.20
41756;DHT22;27435;48.480;9.258;2022-08-04T08:26:07;29.40;60.40
41756;DHT22;27435;48.480;9.258;2022-08-04T08:28:50;29.60;59.50
41756;DHT22;27435;48.480;9.258;2022-08-04T08:31:16;29.80;59.00
41756;DHT22;27435;48.480;9.258;2022-08-04T08:33:42;29.80;59.10
41756;DHT22;27435;48.480;9.258;2022-08-04T08:39:18;29.90;59.40
41756;DHT22;27435;48.480;9.258;2022-08-04T08:48:52;30.40;59.10
41756;DHT22;27435;48.480;9.258;2022-08-04T08:55:00;30.80;58.10
41756;DHT22;27435;48.480;9.258;2022-08-04T09:00:58;31.10;57.50
41756;DHT22;27435;48.480;9.258;2022-08-04T09:04:26;31.20;56.70
41756;DHT22;27435;48.480;9.258;2022-08-04T09:10:02;31.40;55.40
41756;DHT22;27435;48.480;9.258;2022-08-04T09:13:02;31.40;54.70
41756;DHT22;27435;48.480;9.258;2022-08-04T09:15:48;31.40;55.30
41756;DHT22;27435;48.480;9.258;2022-08-04T09:21:03;31.40;54.50
41756;DHT22;27435;48.480;9.258;2022-08-04T09:23:57;31.60;53.80
41756;DHT22;27435;48.480;9.258;2022-08-04T09:29:16;31.90;52.80
41756;DHT22;27435;48.480;9.258;2022-08-04T09:31:54;31.70;52.90
41756;DHT22;27435;48.480;9.258;2022-08-04T09:34:46;31.70;52.90
41756;DHT22;27435;48.480;9.258;2022-08-04T09:37:39;31.90;52.80
41756;DHT22;27435;48.480;9.258;2022-08-04T09:40:14;31.80;53.30
41756;DHT22;27435;48.480;9.258;2022-08-04T09:42:51;32.00;53.10
41756;DHT22;27435;48.480;9.258;2022-08-04T09:48:38;32.00;52.90
41756;DHT22;27435;48.480;9.258;2022-08-04T09:51:55;32.30;52.60
41756;DHT22;27435;48.480;9.258;2022-08-04T09:59:57;32.30;51.10
41756;DHT22;27435;48.480;9.258;2022-08-04T10:02:32;32.50;51.20
41756;DHT22;27435;48.480;9.258;2022-08-04T10:05:02;32.70;47.80
41756;DHT22;27435;48.480;9.258;2022-08-04T10:07:43;32.60;46.10
41756;DHT22;27435;48.480;9.258;2022-08-04T10:10:24;32.70;43.80
41756;DHT22;27435;48.480;9.258;2022-08-04T10:18:57;32.80;46.60
41756;DHT22;27435;48.480;9.258;2022-08-04T10:21:37;32.90;46.70
41756;DHT22;27435;48.480;9.258;2022-08-04T10:24:13;32.80;46.50
41756;DHT22;27435;48.480;9.258;2022-08-04T10:26:55;33.10;46.30
41756;DHT22;27435;48.480;9.258;2022-08-04T10:29:42;33.30;43.70
41756;DHT22;27435;48.480;9.258;2022-08-04T10:32:27;33.20;43.90
41756;DHT22;27435;48.480;9.258;2022-08-04T10:35:10;32.90;45.40
41756;DHT22;27435;48.480;9.258;2022-08-04T10:52:10;33.30;42.90
41756;DHT22;27435;48.480;9.258;2022-08-04T10:57:35;33.50;43.80
41756;DHT22;27435;48.480;9.258;2022-08-04T11:00:10;33.80;43.00
41756;DHT22;27435;48.480;9.258;2022-08-04T11:03:04;33.70;42.90
41756;DHT22;27435;48.480;9.258;2022-08-04T11:05:52;33.50;42.10
41756;DHT22;27435;48.480;9.258;2022-08-04T11:08:28;33.40;43.30
41756;DHT22;27435;48.480;9.258;2022-08-04T11:11:15;33.30;43.40
41756;DHT22;27435;48.480;9.258;2022-08-04T11:13:46;33.20;43.80
41756;DHT22;27435;48.480;9.258;2022-08-04T11:16:25;33.40;44.20
41756;DHT22;27435;48.480;9.258;2022-08-04T11:21:34;33.70;43.50
41756;DHT22;27435;48.480;9.258;2022-08-04T11:24:17;33.70;43.30
41756;DHT22;27435;48.480;9.258;2022-08-04T11:26:52;33.60;43.60
41756;DHT22;27435;48.480;9.258;2022-08-04T11:29:31;33.60;43.50
41756;DHT22;27435;48.480;9.258;2022-08-04T11:31:59;33.70;43.60
41756;DHT22;27435;48.480;9.258;2022-08-04T11:34:27;33.80;42.70
41756;DHT22;27435;48.480;9.258;2022-08-04T11:37:03;33.80;42.60
41756;DHT22;27435;48.480;9.258;2022-08-04T11:40:32;33.80;43.50
41756;DHT22;27435;48.480;9.258;2022-08-04T11:42:35;33.80;43.10
41756;DHT22;27435;48.480;9.258;2022-08-04T11:45:33;33.80;42.60
41756;DHT22;27435;48.480;9.258;2022-08-04T11:48:18;33.90;43.00
41756;DHT22;27435;48.480;9.258;2022-08-04T11:50:52;34.30;41.70
41756;DHT22;27435;48.480;9.258;2022-08-04T11:53:22;34.40;42.20
41756;DHT22;27435;48.480;9.258;2022-08-04T11:55:51;34.50;43.00
41756;DHT22;27435;48.480;9.258;2022-08-04T11:58:18;34.50;42.30
41756;DHT22;27435;48.480;9.258;2022-08-04T12:00:58;34.60;42.10
41756;DHT22;27435;48.480;9.258;2022-08-04T12:04:07;34.60;41.20
41756;DHT22;27435;48.480;9.258;2022-08-04T12:09:48;34.50;42.70
41756;DHT22;27435;48.480;9.258;2022-08-04T12:12:24;34.80;41.50
41756;DHT22;27435;48.480;9.258;2022-08-04T12:20:29;34.80;42.30
41756;DHT22;27435;48.480;9.258;2022-08-04T12:22:57;35.00;41.10
41756;DHT22;27435;48.480;9.258;2022-08-04T12:25:30;35.30;40.60
41756;DHT22;27435;48.480;9.258;2022-08-04T12:28:02;35.60;41.00
41756;DHT22;27435;48.480;9.258;2022-08-04T12:30:33;35.50;40.30
41756;DHT22;27435;48.480;9.258;2022-08-04T12:33:09;35.60;40.40
41756;DHT22;27435;48.480;9.258;2022-08-04T12:35:46;35.60;41.20
41756;DHT22;27435;48.480;9.258;2022-08-04T12:38:14;35.70;40.50
41756;DHT22;27435;48.480;9.258;2022-08-04T12:40:49;35.40;40.30
41756;DHT22;27435;48.480;9.258;2022-08-04T12:43:38;35.70;39.50
41756;DHT22;27435;48.480;9.258;2022-08-04T12:46:06;35.90;40.30
41756;DHT22;27435;48.480;9.258;2022-08-04T12:48:35;36.30;39.30
41756;DHT22;27435;48.480;9.258;2022-08-04T12:51:02;36.50;39.20
41756;DHT22;27435;48.480;9.258;2022-08-04T12:53:37;36.00;39.80
41756;DHT22;27435;48.480;9.258;2022-08-04T12:56:04;36.30;39.20
41756;DHT22;27435;48.480;9.258;2022-08-04T12:58:41;36.20;38.70
41756;DHT22;27435;48.480;9.258;2022-08-04T13:01:18;36.40;38.90
41756;DHT22;27435;48.480;9.258;2022-08-04T13:03:51;36.80;39.10
41756;DHT22;27435;48.480;9.258;2022-08-04T13:06:35;37.40;38.30
41756;DHT22;27435;48.480;9.258;2022-08-04T13:09:11;37.80;37.20
41756;DHT22;27435;48.480;9.258;2022-08-04T13:12:05;37.40;37.90
41756;DHT22;27435;48.480;9.258;2022-08-04T13:14:40;37.40;37.60
41756;DHT22;27435;48.480;9.258;2022-08-04T13:17:20;36.90;38.20
41756;DHT22;27435;48.480;9.258;2022-08-04T13:22:50;37.60;37.80
41756;DHT22;27435;48.480;9.258;2022-08-04T13:25:19;38.10;37.80
41756;DHT22;27435;48.480;9.258;2022-08-04T13:27:51;38.20;36.90
41756;DHT22;27435;48.480;9.258;2022-08-04T13:30:19;38.20;36.90
41756;DHT22;27435;48.480;9.258;2022-08-04T13:32:55;38.20;37.10
41756;DHT22;27435;48.480;9.258;2022-08-04T13:35:31;38.30;37.10
41756;DHT22;27435;48.480;9.258;2022-08-04T13:38:13;38.20;37.00
41756;DHT22;27435;48.480;9.258;2022-08-04T13:40:43;38.10;37.00
41756;DHT22;27435;48.480;9.258;2022-08-04T13:43:25;38.00;36.90
41756;DHT22;27435;48.480;9.258;2022-08-04T13:46:02;38.10;36.00
41756;DHT22;27435;48.480;9.258;2022-08-04T13:48:37;38.40;36.00
41756;DHT22;27435;48.480;9.258;2022-08-04T13:51:04;38.00;36.00
41756;DHT22;27435;48.480;9.258;2022-08-04T13:53:37;38.70;35.50
41756;DHT22;27435;48.480;9.258;2022-08-04T13:56:08;38.50;36.70
41756;DHT22;27435;48.480;9.258;2022-08-04T13:58:40;39.00;35.70
41756;DHT22;27435;48.480;9.258;2022-08-04T14:01:15;38.70;35.30
41756;DHT22;27435;48.480;9.258;2022-08-04T14:06:27;39.60;35.00
41756;DHT22;27435;48.480;9.258;2022-08-04T14:08:59;40.00;35.00
41756;DHT22;27435;48.480;9.258;2022-08-04T14:11:37;40.60;34.30
41756;DHT22;27435;48.480;9.258;2022-08-04T14:14:23;40.90;33.00
41756;DHT22;27435;48.480;9.258;2022-08-04T14:19:21;42.00;32.10
41756;DHT22;27435;48.480;9.258;2022-08-04T14:21:46;41.70;31.30
41756;DHT22;27435;48.480;9.258;2022-08-04T14:24:22;40.90;31.30
41756;DHT22;27435;48.480;9.258;2022-08-04T14:26:47;40.20;31.10
41756;DHT22;27435;48.480;9.258;2022-08-04T14:29:15;40.10;31.30
41756;DHT22;27435;48.480;9.258;2022-08-04T14:31:41;40.60;31.30
41756;DHT22;27435;48.480;9.258;2022-08-04T14:34:07;41.20;30.20
41756;DHT22;27435;48.480;9.258;2022-08-04T14:36:42;41.50;30.40
41756;DHT22;27435;48.480;9.258;2022-08-04T14:39:08;42.00;30.10
41756;DHT22;27435;48.480;9.258;2022-08-04T14:41:47;42.50;29.90
41756;DHT22;27435;48.480;9.258;2022-08-04T14:44:13;42.70;29.50
41756;DHT22;27435;48.480;9.258;2022-08-04T14:46:54;42.80;30.30
41756;DHT22;27435;48.480;9.258;2022-08-04T14:49:21;43.00;29.80
41756;DHT22;27435;48.480;9.258;2022-08-04T14:51:55;41.90;30.20
41756;DHT22;27435;48.480;9.258;2022-08-04T14:56:56;39.90;32.90
41756;DHT22;27435;48.480;9.258;2022-08-04T14:59:23;39.20;33.80
41756;DHT22;27435;48.480;9.258;2022-08-04T15:01:50;39.10;35.30
41756;DHT22;27435;48.480;9.258;2022-08-04T15:04:17;39.80;34.40
41756;DHT22;27435;48.480;9.258;2022-08-04T15:06:46;40.90;34.20
41756;DHT22;27435;48.480;9.258;2022-08-04T15:09:12;42.00;32.00
41756;DHT22;27435;48.480;9.258;2022-08-04T15:11:38;42.70;30.90
41756;DHT22;27435;48.480;9.258;2022-08-04T15:14:04;43.20;30.30
41756;DHT22;27435;48.480;9.258;2022-08-04T15:16:31;42.40;32.80
41756;DHT22;27435;48.480;9.258;2022-08-04T15:18:58;41.10;32.60
41756;DHT22;27435;48.480;9.258;2022-08-04T15:21:26;40.20;33.60
41756;DHT22;27435;48.480;9.258;2022-08-04T15:23:55;39.50;32.90
41756;DHT22;27435;48.480;9.258;2022-08-04T15:26:43;39.50;34.00
41756;DHT22;27435;48.480;9.258;2022-08-04T15:29:16;40.60;33.20
41756;DHT22;27435;48.480;9.258;2022-08-04T15:31:44;40.90;32.50
41756;DHT22;27435;48.480;9.258;2022-08-04T15:34:11;41.40;32.10
41756;DHT22;27435;48.480;9.258;2022-08-04T15:36:47;42.10;31.70
41756;DHT22;27435;48.480;9.258;2022-08-04T15:43:18;42.00;30.00
41756;DHT22;27435;48.480;9.258;2022-08-04T15:45:48;41.50;30.00
41756;DHT22;27435;48.480;9.258;2022-08-04T15:58:51;39.80;34.10
41756;DHT22;27435;48.480;9.258;2022-08-04T16:01:17;39.60;34.20
41756;DHT22;27435;48.480;9.258;2022-08-04T16:03:48;39.50;35.10
41756;DHT22;27435;48.480;9.258;2022-08-04T16:06:39;39.70;34.40
41756;DHT22;27435;48.480;9.258;2022-08-04T16:09:01;39.90;34.30
41756;DHT22;27435;48.480;9.258;2022-08-04T16:16:28;39.90;34.30
41756;DHT22;27435;48.480;9.258;2022-08-04T16:18:54;39.60;34.30
41756;DHT22;27435;48.480;9.258;2022-08-04T16:21:24;40.00;33.80
41756;DHT22;27435;48.480;9.258;2022-08-04T16:34:58;41.20;32.30
41756;DHT22;27435;48.480;9.258;2022-08-04T16:37:37;40.60;33.20
41756;DHT22;27435;48.480;9.258;2022-08-04T16:40:27;41.00;32.80
41756;DHT22;27435;48.480;9.258;2022-08-04T16:43:16;41.30;33.00
41756;DHT22;27435;48.480;9.258;2022-08-04T16:45:45;41.10;32.10
41756;DHT22;27435;48.480;9.258;2022-08-04T16:48:13;41.40;32.40
41756;DHT22;27435;48.480;9.258;2022-08-04T16:53:19;41.80;32.40
41756;DHT22;27435;48.480;9.258;2022-08-04T16:55:50;40.60;33.70
41756;DHT22;27435;48.480;9.258;2022-08-04T16:58:22;41.30;32.50
41756;DHT22;27435;48.480;9.258;2022-08-04T17:00:48;40.80;32.60
41756;DHT22;27435;48.480;9.258;2022-08-04T17:03:14;41.60;31.80
41756;DHT22;27435;48.480;9.258;2022-08-04T17:05:40;42.30;31.50
41756;DHT22;27435;48.480;9.258;2022-08-04T17:08:10;41.30;32.80
41756;DHT22;27435;48.480;9.258;2022-08-04T17:10:39;40.50;33.80
41756;DHT22;27435;48.480;9.258;2022-08-04T17:13:39;40.60;33.90
41756;DHT22;27435;48.480;9.258;2022-08-04T17:16:10;39.40;35.10
41756;DHT22;27435;48.480;9.258;2022-08-04T17:18:41;37.90;37.70
41756;DHT22;27435;48.480;9.258;2022-08-04T17:21:11;36.90;38.90
41756;DHT22;27435;48.480;9.258;2022-08-04T17:23:39;35.90;41.00
41756;DHT22;27435;48.480;9.258;2022-08-04T17:26:14;35.30;42.00
41756;DHT22;27435;48.480;9.258;2022-08-04T17:28:41;35.00;42.80
41756;DHT22;27435;48.480;9.258;2022-08-04T17:31:09;34.80;43.80
41756;DHT22;27435;48.480;9.258;2022-08-04T17:33:36;34.50;43.60
41756;DHT22;27435;48.480;9.258;2022-08-04T17:36:03;34.40;44.20
41756;DHT22;27435;48.480;9.258;2022-08-04T17:38:31;34.20;44.70
41756;DHT22;27435;48.480;9.258;2022-08-04T17:41:02;34.10;45.30
41756;DHT22;27435;48.480;9.258;2022-08-04T17:43:36;34.10;45.80
41756;DHT22;27435;48.480;9.258;2022-08-04T17:51:45;33.80;46.40
41756;DHT22;27435;48.480;9.258;2022-08-04T17:54:33;33.80;46.40
41756;DHT22;27435;48.480;9.258;2022-08-04T17:57:13;33.70;47.00
41756;DHT22;27435;48.480;9.258;2022-08-04T18:02:04;33.50;48.20
41756;DHT22;27435;48.480;9.258;2022-08-04T18:07:23;33.10;53.20
41756;DHT22;27435;48.480;9.258;2022-08-04T18:09:55;32.90;53.90
41756;DHT22;27435;48.480;9.258;2022-08-04T18:12:30;32.70;55.00
41756;DHT22;27435;48.480;9.258;2022-08-04T18:15:03;32.50;55.20
41756;DHT22;27435;48.480;9.258;2022-08-04T18:17:36;32.30;55.90
41756;DHT22;27435;48.480;9.258;2022-08-04T18:20:07;31.90;56.50
41756;DHT22;27435;48.480;9.258;2022-08-04T18:22:34;31.80;57.00
41756;DHT22;27435;48.480;9.258;2022-08-04T18:25:00;31.60;57.30
41756;DHT22;27435;48.480;9.258;2022-08-04T18:27:27;31.50;57.50
41756;DHT22;27435;48.480;9.258;2022-08-04T18:29:53;31.30;58.40
41756;DHT22;27435;48.480;9.258;2022-08-04T18:32:20;31.10;59.50
41756;DHT22;27435;48.480;9.258;2022-08-04T18:34:49;30.70;60.30
41756;DHT22;27435;48.480;9.258;2022-08-04T18:37:15;30.40;61.20
41756;DHT22;27435;48.480;9.258;2022-08-04T18:39:41;30.20;61.50
41756;DHT22;27435;48.480;9.258;2022-08-04T18:42:06;29.90;61.20
41756;DHT22;27435;48.480;9.258;2022-08-04T18:44:33;29.80;61.70
41756;DHT22;27435;48.480;9.258;2022-08-04T18:46:59;29.60;62.20
41756;DHT22;27435;48.480;9.258;2022-08-04T18:49:26;29.50;62.20
41756;DHT22;27435;48.480;9.258;2022-08-04T18:51:54;29.20;62.80
41756;DHT22;27435;48.480;9.258;2022-08-04T18:54:24;29.00;63.60
41756;DHT22;27435;48.480;9.258;2022-08-04T18:56:51;28.70;64.10
41756;DHT22;27435;48.480;9.258;2022-08-04T18:59:17;28.60;64.10
41756;DHT22;27435;48.480;9.258;2022-08-04T19:01:43;28.50;64.80
41756;DHT22;27435;48.480;9.258;2022-08-04T19:04:09;28.30;64.40
41756;DHT22;27435;48.480;9.258;2022-08-04T19:06:36;28.30;64.60
41756;DHT22;27435;48.480;9.258;2022-08-04T19:09:03;28.20;64.80
41756;DHT22;27435;48.480;9.258;2022-08-04T19:11:30;28.20;64.60
41756;DHT22;27435;48.480;9.258;2022-08-04T19:14:01;28.10;64.90
41756;DHT22;27435;48.480;9.258;2022-08-04T19:16:28;28.00;65.40
41756;DHT22;27435;48.480;9.258;2022-08-04T19:18:54;27.80;65.70
41756;DHT22;27435;48.480;9.258;2022-08-04T19:21:20;27.70;66.20
41756;DHT22;27435;48.480;9.258;2022-08-04T19:23:45;27.50;66.40
41756;DHT22;27435;48.480;9.258;2022-08-04T19:26:11;27.40;66.90
41756;DHT22;27435;48.480;9.258;2022-08-04T19:28:37;27.30;66.90
41756;DHT22;27435;48.480;9.258;2022-08-04T19:31:07;27.10;67.20
41756;DHT22;27435;48.480;9.258;2022-08-04T19:33:34;26.90;67.30
41756;DHT22;27435;48.480;9.258;2022-08-04T19:36:00;26.90;66.40
41756;DHT22;27435;48.480;9.258;2022-08-04T19:38:25;27.10;65.50
41756;DHT22;27435;48.480;9.258;2022-08-04T19:40:51;27.20;65.70
41756;DHT22;27435;48.480;9.258;2022-08-04T19:43:17;27.30;66.10
41756;DHT22;27435;48.480;9.258;2022-08-04T19:45:44;27.10;66.20
41756;DHT22;27435;48.480;9.258;2022-08-04T19:48:10;27.10;65.70
41756;DHT22;27435;48.480;9.258;2022-08-04T19:50:35;27.10;65.40
41756;DHT22;27435;48.480;9.258;2022-08-04T19:53:01;27.10;65.30
41756;DHT22;27435;48.480;9.258;2022-08-04T19:55:27;26.90;65.40
41756;DHT22;27435;48.480;9.258;2022-08-04T19:57:52;26.90;66.10
41756;DHT22;27435;48.480;9.258;2022-08-04T20:00:19;26.90;66.00
41756;DHT22;27435;48.480;9.258;2022-08-04T20:02:45;27.00;66.00
41756;DHT22;27435;48.480;9.258;2022-08-04T20:05:12;26.90;66.20
41756;DHT22;27435;48.480;9.258;2022-08-04T20:07:38;26.90;66.50